createdAt,value
2022-07-27T00:02:12.807Z,2.78
2022-07-27T00:05:02.016Z,2.15
2022-07-27T00:07:51.127Z,2.22
2022-07-27T00:10:41.630Z,1.83
2022-07-27T00:13:31.260Z,2.85
2022-07-27T00:16:20.731Z,2.60
2022-07-27T00:19:10.226Z,2.97
2022-07-27T00:22:00.335Z,3.30
2022-07-27T00:24:48.969Z,2.80
2022-07-27T00:27:39.815Z,2.00
2022-07-27T00:30:29.720Z,2.75
2022-07-27T00:33:18.518Z,2.83
2022-07-27T00:36:07.922Z,1.95
2022-07-27T00:38:56.609Z,1.98
2022-07-27T00:41:45.949Z,2.10
2022-07-27T00:44:37.203Z,2.40
2022-07-27T00:47:27.184Z,2.33
2022-07-27T00:50:16.655Z,2.75
2022-07-27T00:53:06.918Z,2.35
2022-07-27T00:55:56.308Z,2.60
2022-07-27T00:58:48.927Z,2.60
2022-07-27T01:01:39.938Z,2.22
2022-07-27T01:04:29.417Z,1.60
2022-07-27T01:07:19.620Z,1.65
2022-07-27T01:10:09.132Z,1.45
2022-07-27T01:12:58.647Z,1.77
2022-07-27T01:15:48.057Z,1.63
2022-07-27T01:18:40.796Z,1.48
2022-07-27T01:21:34.043Z,1.50
2022-07-27T01:24:24.915Z,1.20
2022-07-27T01:27:14.052Z,1.90
2022-07-27T01:30:03.546Z,2.08
2022-07-27T01:32:52.870Z,2.65
2022-07-27T01:35:42.198Z,2.00
2022-07-27T01:38:31.754Z,2.00
2022-07-27T01:41:22.142Z,1.90
2022-07-27T01:44:11.401Z,2.03
2022-07-27T01:47:01.298Z,2.00
2022-07-27T01:49:50.498Z,2.22
2022-07-27T01:52:39.647Z,2.17
2022-07-27T01:55:35.707Z,2.20
2022-07-27T01:58:29.530Z,1.88
2022-07-27T02:01:18.394Z,1.80
2022-07-27T02:04:08.021Z,2.05
2022-07-27T02:06:57.889Z,1.92
2022-07-27T02:09:47.539Z,1.63
2022-07-27T02:12:38.551Z,1.73
2022-07-27T02:15:30.691Z,1.85
2022-07-27T02:18:36.939Z,1.80
2022-07-27T02:21:27.019Z,1.85
2022-07-27T02:24:16.774Z,2.42
2022-07-27T02:27:06.200Z,2.47
2022-07-27T02:29:55.274Z,2.10
2022-07-27T02:32:46.734Z,2.22
2022-07-27T02:35:36.164Z,2.63
2022-07-27T02:38:26.241Z,2.75
2022-07-27T02:41:15.187Z,2.00
2022-07-27T02:44:04.379Z,2.63
2022-07-27T02:46:54.072Z,2.92
2022-07-27T02:49:44.986Z,2.78
2022-07-27T02:52:34.831Z,2.50
2022-07-27T02:55:24.472Z,2.40
2022-07-27T02:58:14.715Z,2.47
2022-07-27T03:01:03.804Z,2.17
2022-07-27T03:03:52.637Z,1.92
2022-07-27T03:06:43.614Z,2.63
2022-07-27T03:09:33.121Z,1.98
2022-07-27T03:12:22.332Z,2.53
2022-07-27T03:15:13.139Z,2.33
2022-07-27T03:18:04.209Z,2.72
2022-07-27T03:20:53.204Z,2.30
2022-07-27T03:23:43.900Z,2.22
2022-07-27T03:26:33.716Z,2.13
2022-07-27T03:29:22.731Z,2.15
2022-07-27T03:32:11.632Z,2.10
2022-07-27T03:35:01.181Z,2.60
2022-07-27T03:37:50.195Z,2.15
2022-07-27T03:40:41.075Z,1.95
2022-07-27T03:43:30.063Z,2.15
2022-07-27T03:46:19.737Z,1.83
2022-07-27T03:49:13.786Z,2.08
2022-07-27T03:52:04.469Z,2.00
2022-07-27T03:54:53.611Z,2.03
2022-07-27T03:57:44.528Z,1.80
2022-07-27T04:00:33.384Z,2.10
2022-07-27T04:03:21.886Z,1.98
2022-07-27T04:06:11.139Z,2.15
2022-07-27T04:09:08.356Z,1.88
2022-07-27T04:12:02.766Z,1.90
2022-07-27T04:14:53.437Z,2.22
2022-07-27T04:17:55.307Z,1.63
2022-07-27T04:20:47.780Z,2.00
2022-07-27T04:23:38.477Z,2.10
2022-07-27T04:26:28.487Z,2.15
2022-07-27T04:29:20.949Z,2.47
2022-07-27T04:32:12.040Z,2.05
2022-07-27T04:35:01.138Z,2.55
2022-07-27T04:37:58.475Z,2.50
2022-07-27T04:40:48.862Z,2.20
2022-07-27T04:43:38.342Z,2.42
2022-07-27T04:46:27.481Z,2.70
2022-07-27T04:49:18.563Z,2.97
2022-07-27T04:52:08.052Z,3.30
2022-07-27T04:54:57.278Z,2.80
2022-07-27T04:57:46.699Z,2.22
2022-07-27T05:00:36.378Z,2.35
2022-07-27T05:03:25.366Z,2.40
2022-07-27T05:06:16.007Z,2.72
2022-07-27T05:09:05.498Z,2.17
2022-07-27T05:11:55.046Z,2.38
2022-07-27T05:14:44.126Z,3.00
2022-07-27T05:17:33.893Z,2.45
2022-07-27T05:20:23.222Z,2.53
2022-07-27T05:23:14.141Z,2.17
2022-07-27T05:26:03.418Z,4.70
2022-07-27T05:28:53.036Z,4.00
2022-07-27T05:31:44.120Z,3.22
2022-07-27T05:34:33.624Z,2.20
2022-07-27T05:37:23.072Z,3.00
2022-07-27T05:40:15.194Z,2.85
2022-07-27T05:43:04.693Z,2.03
2022-07-27T05:45:53.949Z,2.40
2022-07-27T05:48:43.616Z,2.35
2022-07-27T05:51:33.371Z,2.58
2022-07-27T05:54:22.811Z,2.33
2022-07-27T05:57:13.217Z,1.88
2022-07-27T06:00:03.269Z,1.88
2022-07-27T06:02:52.338Z,2.33
2022-07-27T06:05:41.989Z,2.70
2022-07-27T06:08:30.160Z,2.42
2022-07-27T06:11:19.545Z,2.13
2022-07-27T06:14:10.114Z,1.92
2022-07-27T06:16:59.155Z,1.90
2022-07-27T06:19:48.584Z,2.60
2022-07-27T06:22:47.450Z,1.85
2022-07-27T06:25:37.499Z,2.40
2022-07-27T06:28:27.050Z,2.83
2022-07-27T06:31:17.252Z,2.20
2022-07-27T06:34:11.808Z,2.53
2022-07-27T06:37:00.940Z,3.40
2022-07-27T06:39:50.106Z,2.85
2022-07-27T06:42:39.461Z,2.65
2022-07-27T06:45:28.567Z,3.45
2022-07-27T06:48:20.883Z,3.60
2022-07-27T06:51:11.385Z,3.47
2022-07-27T06:54:00.634Z,3.30
2022-07-27T06:56:50.022Z,2.85
2022-07-27T06:59:42.538Z,3.72
2022-07-27T07:02:32.932Z,3.03
2022-07-27T07:05:24.794Z,3.38
2022-07-27T07:08:14.812Z,2.67
2022-07-27T07:11:04.209Z,3.05
2022-07-27T07:13:53.275Z,2.97
2022-07-27T07:16:42.546Z,2.40
2022-07-27T07:19:31.918Z,2.75
2022-07-27T07:22:23.227Z,2.10
2022-07-27T07:25:12.580Z,2.08
2022-07-27T07:28:03.666Z,2.00
2022-07-27T07:30:53.080Z,1.50
2022-07-27T07:33:42.580Z,2.00
2022-07-27T07:36:32.528Z,1.55
2022-07-27T07:39:29.155Z,1.60
2022-07-27T07:42:21.641Z,1.58
2022-07-27T07:45:11.889Z,1.60
2022-07-27T07:48:01.080Z,1.30
2022-07-27T07:50:52.415Z,1.60
2022-07-27T07:53:42.341Z,1.48
2022-07-27T07:56:33.345Z,1.33
2022-07-27T07:59:22.498Z,1.42
2022-07-27T08:02:11.482Z,1.58
2022-07-27T08:05:00.985Z,1.50
2022-07-27T08:07:50.730Z,1.90
2022-07-27T08:10:40.146Z,1.90
2022-07-27T08:13:30.815Z,1.45
2022-07-27T08:16:20.361Z,1.60
2022-07-27T08:19:10.011Z,1.65
2022-07-27T08:21:59.694Z,1.58
2022-07-27T08:24:48.382Z,1.50
2022-07-27T08:27:40.258Z,1.70
2022-07-27T08:30:32.905Z,1.83
2022-07-27T08:33:22.910Z,1.73
2022-07-27T08:36:13.115Z,1.85
2022-07-27T08:39:09.689Z,1.33
2022-07-27T08:42:04.277Z,1.77
2022-07-27T08:44:54.661Z,1.58
2022-07-27T08:47:46.309Z,1.55
2022-07-27T08:50:35.962Z,1.60
2022-07-27T08:53:25.744Z,1.80
2022-07-27T08:56:15.376Z,1.67
2022-07-27T08:59:04.663Z,1.50
2022-07-27T09:01:54.466Z,1.95
2022-07-27T09:04:45.752Z,2.22
2022-07-27T09:07:34.876Z,2.00
2022-07-27T09:10:32.367Z,1.80
2022-07-27T09:13:24.458Z,1.73
2022-07-27T10:49:51.011Z,2.00
2022-07-27T10:52:44.442Z,1.83
2022-07-27T10:55:47.013Z,1.95
2022-07-27T10:58:50.296Z,2.13
2022-07-27T11:01:57.814Z,2.45
2022-07-27T11:04:48.410Z,1.92
2022-07-27T11:08:01.658Z,1.95
2022-07-27T11:10:55.181Z,2.25
2022-07-27T11:13:45.458Z,2.60
2022-07-27T11:16:43.095Z,2.10
2022-07-27T11:19:36.772Z,2.75
2022-07-27T11:23:03.156Z,2.30
2022-07-27T11:25:43.579Z,1.90
2022-07-27T11:28:33.078Z,2.10
2022-07-27T11:31:45.186Z,2.33
2022-07-27T11:34:34.717Z,2.03
2022-07-27T11:37:25.125Z,2.42
2022-07-27T11:40:53.804Z,2.50
2022-07-27T11:43:45.386Z,2.45
2022-07-27T11:46:36.279Z,2.90
2022-07-27T11:49:29.020Z,3.10
2022-07-27T11:52:19.703Z,2.63
2022-07-27T11:55:09.802Z,3.60
2022-07-27T11:58:05.885Z,2.88
2022-07-27T12:00:56.967Z,4.00
2022-07-27T12:03:47.328Z,2.90
2022-07-27T12:06:39.123Z,3.30
2022-07-27T12:09:38.383Z,3.42
2022-07-27T12:12:29.819Z,3.40
2022-07-27T12:15:46.016Z,3.10
2022-07-27T12:18:42.926Z,3.13
2022-07-27T12:21:32.401Z,3.17
2022-07-27T12:24:22.211Z,3.20
2022-07-27T12:27:15.637Z,2.67
2022-07-27T12:30:12.128Z,3.47
2022-07-27T12:33:02.618Z,3.40
2022-07-27T12:35:53.881Z,2.80
2022-07-27T12:38:44.459Z,2.72
2022-07-27T12:41:37.954Z,2.53
2022-07-27T12:44:34.688Z,2.83
2022-07-27T12:47:42.762Z,3.08
2022-07-27T12:50:34.065Z,2.40
2022-07-27T12:53:24.602Z,2.63
2022-07-27T12:56:14.391Z,2.53
2022-07-27T12:59:04.616Z,2.40
2022-07-27T13:01:56.287Z,2.95
2022-07-27T13:04:45.516Z,3.20
2022-07-27T13:07:35.255Z,2.80
2022-07-27T13:10:25.393Z,2.65
2022-07-27T13:13:14.910Z,2.45
2022-07-27T13:16:03.970Z,2.92
2022-07-27T13:18:53.820Z,2.25
2022-07-27T13:21:43.627Z,2.55
2022-07-27T13:24:32.650Z,2.40
2022-07-27T13:27:23.895Z,2.63
2022-07-27T13:30:15.083Z,2.53
2022-07-27T13:33:05.109Z,2.55
2022-07-27T13:36:00.340Z,2.65
2022-07-27T13:38:50.414Z,2.85
2022-07-27T13:41:40.725Z,2.55
2022-07-27T13:45:00.581Z,2.20
2022-07-27T13:47:40.680Z,2.53
2022-07-27T13:50:29.900Z,3.10
2022-07-27T13:53:19.966Z,2.90
2022-07-27T13:56:09.033Z,3.20
2022-07-27T13:58:58.890Z,3.10
2022-07-27T14:01:52.522Z,3.33
2022-07-27T14:04:46.441Z,2.47
2022-07-27T14:07:35.777Z,2.67
2022-07-27T14:10:39.805Z,2.88
2022-07-27T14:13:32.983Z,2.50
2022-07-27T14:16:22.180Z,3.10
2022-07-27T14:19:14.903Z,2.63
2022-07-27T14:22:04.690Z,3.03
2022-07-27T14:24:54.351Z,3.42
2022-07-27T14:27:43.158Z,2.88
2022-07-27T14:30:32.465Z,2.60
2022-07-27T14:33:21.885Z,2.67
2022-07-27T14:36:17.073Z,2.70
2022-07-27T14:39:06.148Z,3.03
2022-07-27T14:41:55.631Z,2.78
2022-07-27T14:44:45.083Z,2.40
2022-07-27T14:47:34.766Z,2.10
2022-07-27T14:50:24.619Z,2.92
2022-07-27T14:53:15.530Z,2.47
2022-07-27T14:56:05.117Z,2.83
2022-07-27T14:58:54.654Z,2.47
2022-07-27T15:01:44.122Z,2.33
2022-07-27T15:04:33.262Z,2.42
2022-07-27T15:07:21.909Z,3.85
2022-07-27T15:10:12.505Z,2.45
2022-07-27T15:13:02.050Z,2.55
2022-07-27T15:15:53.206Z,2.63
2022-07-27T15:18:42.126Z,2.17
2022-07-27T15:21:31.979Z,2.90
2022-07-27T15:24:21.151Z,2.60
2022-07-27T15:27:11.390Z,2.90
2022-07-27T15:30:00.860Z,2.20
2022-07-27T15:32:50.027Z,2.90
2022-07-27T15:35:40.625Z,2.80
2022-07-27T15:38:29.700Z,2.38
2022-07-27T15:41:18.588Z,2.72
2022-07-27T15:44:10.159Z,2.25
2022-07-27T15:46:59.252Z,2.40
2022-07-27T15:49:48.985Z,2.60
2022-07-27T15:52:38.314Z,2.60
2022-07-27T15:55:27.433Z,2.30
2022-07-27T15:58:19.564Z,2.05
2022-07-27T16:01:12.144Z,2.25
2022-07-27T16:04:01.790Z,3.00
2022-07-27T16:06:51.265Z,2.25
2022-07-27T16:09:40.870Z,2.67
2022-07-27T16:12:29.645Z,2.53
2022-07-27T16:15:18.682Z,2.38
2022-07-27T16:18:10.758Z,2.83
2022-07-27T16:21:00.057Z,2.40
2022-07-27T16:23:49.428Z,2.40
2022-07-27T16:26:38.451Z,2.20
2022-07-27T16:29:29.027Z,3.03
2022-07-27T16:32:18.093Z,2.55
2022-07-27T16:35:10.665Z,2.67
2022-07-27T16:37:59.781Z,2.25
2022-07-27T16:40:49.313Z,2.67
2022-07-27T16:43:39.229Z,2.28
2022-07-27T16:46:28.327Z,2.63
2022-07-27T16:49:18.809Z,2.58
2022-07-27T16:52:10.338Z,2.38
2022-07-27T16:54:59.400Z,2.60
2022-07-27T16:57:48.993Z,2.75
2022-07-27T17:00:38.899Z,2.60
2022-07-27T17:03:28.406Z,2.80
2022-07-27T17:06:17.856Z,2.80
2022-07-27T17:09:10.038Z,2.60
2022-07-27T17:11:59.508Z,3.50
2022-07-27T17:14:48.890Z,3.13
2022-07-27T17:17:38.063Z,3.55
2022-07-27T17:20:34.900Z,3.13
2022-07-27T17:23:25.721Z,2.90
2022-07-27T17:26:16.700Z,2.78
2022-07-27T17:29:05.988Z,2.65
2022-07-27T17:31:55.959Z,2.80
2022-07-27T17:34:45.655Z,2.45
2022-07-27T17:38:03.517Z,2.63
2022-07-27T17:40:44.064Z,2.55
2022-07-27T17:43:38.809Z,2.47
2022-07-27T17:46:27.919Z,2.75
2022-07-27T17:49:17.415Z,2.83
2022-07-27T17:52:08.804Z,2.83
2022-07-27T17:54:57.791Z,2.75
2022-07-27T17:57:47.045Z,2.90
2022-07-27T18:00:37.788Z,2.78
2022-07-27T18:03:26.713Z,2.72
2022-07-27T18:06:15.935Z,2.78
2022-07-27T18:09:07.493Z,2.80
2022-07-27T18:11:56.555Z,2.63
2022-07-27T18:14:59.625Z,3.10
2022-07-27T18:17:49.965Z,3.13
2022-07-27T18:20:40.403Z,2.63
2022-07-27T18:23:30.569Z,2.75
2022-07-27T18:26:21.624Z,2.72
2022-07-27T18:29:11.011Z,3.22
2022-07-27T18:32:00.027Z,2.40
2022-07-27T18:34:51.064Z,2.70
2022-07-27T18:37:39.951Z,2.72
2022-07-27T18:40:29.296Z,2.80
2022-07-27T18:43:18.784Z,2.90
2022-07-27T18:46:07.791Z,2.75
2022-07-27T18:48:57.298Z,2.95
2022-07-27T18:51:48.123Z,2.92
2022-07-27T18:54:37.683Z,2.88
2022-07-27T18:57:27.292Z,3.25
2022-07-27T19:00:17.548Z,2.80
2022-07-27T19:03:07.458Z,2.88
2022-07-27T19:05:59.410Z,3.20
2022-07-27T19:08:51.340Z,2.85
2022-07-27T19:11:40.595Z,3.20
2022-07-27T19:14:29.860Z,3.25
2022-07-27T19:17:19.197Z,3.03
2022-07-27T19:20:10.568Z,3.72
2022-07-27T19:23:01.045Z,3.53
2022-07-27T19:25:52.677Z,3.70
2022-07-27T19:28:41.578Z,3.45
2022-07-27T19:31:30.873Z,3.38
2022-07-27T19:34:20.119Z,3.88
2022-07-27T19:37:09.883Z,3.90
2022-07-27T19:40:09.785Z,3.60
2022-07-27T19:43:09.699Z,3.63
2022-07-27T19:45:58.854Z,3.35
2022-07-27T19:51:27.904Z,3.85
2022-07-27T19:54:17.158Z,3.17
2022-07-27T19:57:06.579Z,3.25
2022-07-27T19:59:58.073Z,3.60
2022-07-27T20:02:47.962Z,3.22
2022-07-27T20:05:36.848Z,3.08
2022-07-27T20:08:25.847Z,3.55
2022-07-27T20:11:14.577Z,5.00
2022-07-27T20:14:03.643Z,3.50
2022-07-27T20:16:53.795Z,3.50
2022-07-27T20:19:42.943Z,4.15
2022-07-27T20:22:32.554Z,3.58
2022-07-27T20:25:22.906Z,4.28
2022-07-27T20:28:11.980Z,4.32
2022-07-27T20:31:01.672Z,3.92
2022-07-27T20:33:53.123Z,4.18
2022-07-27T20:36:42.197Z,3.78
2022-07-27T20:39:31.475Z,3.50
2022-07-27T20:42:20.732Z,3.78
2022-07-27T20:45:12.818Z,4.25
2022-07-27T20:48:02.073Z,3.53
2022-07-27T20:50:53.125Z,3.58
2022-07-27T20:53:42.609Z,3.85
2022-07-27T20:56:31.734Z,3.22
2022-07-27T20:59:20.943Z,2.97
2022-07-27T21:02:10.157Z,3.45
2022-07-27T21:04:59.860Z,3.40
2022-07-27T21:07:51.948Z,3.17
2022-07-27T21:10:41.474Z,3.70
2022-07-27T21:13:30.088Z,3.90
2022-07-27T21:16:19.663Z,3.97
2022-07-27T21:19:08.626Z,3.60
2022-07-27T21:21:57.862Z,3.28
2022-07-27T21:24:49.738Z,3.30
2022-07-27T21:27:38.973Z,3.20
2022-07-27T21:30:29.848Z,2.85
2022-07-27T21:33:19.049Z,2.55
2022-07-27T21:36:08.248Z,2.80
2022-07-27T21:38:57.695Z,2.75
2022-07-27T21:41:48.678Z,2.72
2022-07-27T21:44:37.838Z,2.53
2022-07-27T21:47:27.285Z,2.50
2022-07-27T21:50:15.973Z,3.05
2022-07-27T21:53:05.295Z,2.97
2022-07-27T21:55:54.128Z,3.63
2022-07-27T21:58:46.193Z,3.25
2022-07-27T22:01:35.349Z,2.60
2022-07-27T22:04:24.645Z,2.60
2022-07-27T22:07:19.073Z,2.65
2022-07-27T22:10:09.812Z,2.67
2022-07-27T22:12:59.751Z,2.65
2022-07-27T22:15:51.196Z,3.05
2022-07-27T22:18:40.677Z,2.83
2022-07-27T22:21:31.818Z,2.92
2022-07-27T22:24:21.155Z,2.47
2022-07-27T22:27:10.388Z,2.85
2022-07-27T22:30:00.944Z,2.95
2022-07-27T22:32:51.549Z,3.00
2022-07-27T22:35:40.630Z,2.88
2022-07-27T22:38:29.345Z,2.97
2022-07-27T22:41:18.923Z,2.70
2022-07-27T22:44:07.847Z,2.97
2022-07-27T22:46:56.915Z,2.67
2022-07-27T22:49:47.530Z,2.88
2022-07-27T22:52:36.546Z,2.60
2022-07-27T22:55:25.586Z,3.10
2022-07-27T22:58:15.187Z,2.85
2022-07-27T23:01:05.266Z,2.75
2022-07-27T23:03:55.318Z,3.67
2022-07-27T23:06:45.903Z,4.05
2022-07-27T23:09:34.894Z,3.10
2022-07-27T23:12:23.815Z,3.83
2022-07-27T23:15:13.240Z,3.60
2022-07-27T23:18:02.156Z,3.10
2022-07-27T23:20:51.234Z,3.38
2022-07-27T23:23:52.200Z,3.20
2022-07-27T23:26:43.166Z,4.03
2022-07-27T23:29:31.929Z,3.08
2022-07-27T23:32:21.396Z,3.63
2022-07-27T23:35:11.567Z,3.90
2022-07-27T23:38:00.624Z,3.70
2022-07-27T23:40:53.333Z,3.90
2022-07-27T23:43:42.263Z,4.45
2022-07-27T23:46:31.686Z,3.47
2022-07-27T23:49:20.804Z,3.90
2022-07-27T23:52:09.474Z,4.40
2022-07-27T23:55:00.032Z,3.92
2022-07-27T23:57:50.167Z,3.80
